Privateer — WYZ7447 — position and weather

sailwx.info

Track history (hours):
 
Tides and Currents Weather Stations Pressure Air Temp Water Temp Dewpoint Dewpoint Depression Visibility Wind Speed Wind Dir Waves Ship Positions

Privateer

Owner: SEVEN SEAS WHALE WATCH, GLOUCESTER, MA. More information available from US FCC via Universal Licensing System and Coast Guard Vessel Documentation Center.

Last reported at 2018-Jul-21 22:47 UTC. Time now 2018-Jul-22 06:38 UTC.
Position N 32°46' W 117°14'.

Length 20 m.

Type: Passenger vessel. MMSI: 367453620.

Date/timePositionNaut miles runAvg speedWind from/ knotsBaromVisibWave heightAir tempDewpointWater temp
2018-Jul-21 22:47N 32°46' W 117°14'2 7.3
2018-Jul-21 22:30N 32°45' W 117°17'5 9.2
2018-Jul-21 22:00N 32°44' W 117°22'1 1.8
2018-Jul-21 21:25N 32°43' W 117°23'7 4.5
2018-Jul-21 19:46N 32°46' W 117°15'3 9.5
2018-Jul-21 19:30N 32°45' W 117°17'510.2
2018-Jul-21 19:00N 32°43' W 117°23'1 2.3
2018-Jul-21 18:30N 32°42' W 117°23'2 3.6
2018-Jul-21 17:59N 32°43' W 117°21'3 5.6
2018-Jul-21 17:30N 32°45' W 117°18'3 0.1
2018-Jul-20 19:42N 32°45' W 117°15'2 8.3
2018-Jul-20 19:30N 32°45' W 117°17'510.1
2018-Jul-20 19:00N 32°46' W 117°23'2 4.0
2018-Jul-20 18:30N 32°44' W 117°22'0 1.0
2018-Jul-20 18:00N 32°44' W 117°22'7 0.4
2018-Jul-19 23:18N 32°46' W 117°15'3 8.8
2018-Jul-19 23:00N 32°47' W 117°18'510.6
2018-Jul-19 22:30N 32°51' W 117°22'4 8.8
2018-Jul-19 22:00N 32°47' W 117°23'2 4.8
2018-Jul-19 21:30N 32°45' W 117°22'3 6.4
2018-Jul-19 20:58N 32°45' W 117°18'3 3.3
2018-Jul-19 19:55N 32°46' W 117°14'4 9.6
2018-Jul-19 19:29N 32°45' W 117°19'3 5.5
2018-Jul-19 19:00N 32°44' W 117°22'1 1.1
2018-Jul-19 18:30N 32°45' W 117°22'1 2.3
2018-Jul-19 18:00N 32°46' W 117°22'3 5.8
2018-Jul-19 17:30N 32°46' W 117°19'4 0.2
2018-Jul-18 19:58N 32°46' W 117°14'4 8.6
2018-Jul-18 19:29N 32°48' W 117°19'510.5
2018-Jul-18 18:59N 32°50' W 117°24'2 5.0
2018-Jul-18 18:30N 32°48' W 117°23'2 3.1
2018-Jul-18 18:00N 32°47' W 117°21'5 7.8
2018-Jul-18 17:19N 32°45' W 117°15'1 0.0
2018-Jul-17 19:43N 32°46' W 117°14'2 6.4
2018-Jul-17 19:26N 32°45' W 117°16'4 9.2
2018-Jul-17 19:00N 32°46' W 117°21'2 4.2
2018-Jul-17 18:30N 32°45' W 117°23'1 1.4
2018-Jul-17 18:00N 32°45' W 117°22'7 0.4
2018-Jul-16 23:21N 32°46' W 117°15'3 8.9
2018-Jul-16 23:00N 32°47' W 117°18'611.1
2018-Jul-16 22:30N 32°51' W 117°23'1 1.9
2018-Jul-16 22:00N 32°50' W 117°23'2 4.3
2018-Jul-16 21:30N 32°47' W 117°23'4 8.6
2018-Jul-16 20:59N 32°47' W 117°18'3 2.5
2018-Jul-16 19:46N 32°46' W 117°15'2 9.2
2018-Jul-16 19:30N 32°46' W 117°17'510.2
2018-Jul-16 19:00N 32°49' W 117°22'2 3.9
2018-Jul-16 18:30N 32°48' W 117°25'3 6.8
2018-Jul-16 18:00N 32°45' W 117°24'8 0.4
2018-Jul-15 23:35N 32°46' W 117°15'2 9.9
2018-Jul-15 23:23N 32°46' W 117°17'512.1
2018-Jul-15 23:00N 32°48' W 117°22'611.6
2018-Jul-15 22:30N 32°50' W 117°28'4 8.4
2018-Jul-15 22:00N 32°49' W 117°24'2 3.3
2018-Jul-15 21:29N 32°48' W 117°22'3 5.7
2018-Jul-15 21:00N 32°47' W 117°19'4 4.1
2018-Jul-15 20:01N 32°46' W 117°14'1 7.1
2018-Jul-15 19:55N 32°45' W 117°15'511.6
2018-Jul-15 19:30N 32°48' W 117°20'611.4
2018-Jul-15 19:00N 32°49' W 117°27'1 1.8
2018-Jul-15 18:30N 32°49' W 117°26'3 6.4
2018-Jul-15 18:00N 32°48' W 117°23'5 9.0
2018-Jul-15 17:28N 32°45' W 117°18'3 0.2
2018-Jul-14 23:21N 32°46' W 117°14'3 7.7
2018-Jul-14 22:54N 32°44' W 117°18'410.1
2018-Jul-14 22:30N 32°43' W 117°23'3 5.3
2018-Jul-14 22:00N 32°40' W 117°21'3 5.5
2018-Jul-14 21:30N 32°43' W 117°22'4 7.5
2018-Jul-14 21:00N 32°45' W 117°18'3 3.3
2018-Jul-14 19:58N 32°46' W 117°14'4 9.6
2018-Jul-14 19:30N 32°46' W 117°20'611.2
2018-Jul-14 19:00N 32°47' W 117°26'1 2.9
2018-Jul-14 18:30N 32°46' W 117°25'2 4.1
2018-Jul-14 18:00N 32°45' W 117°23'4 7.7
2018-Jul-14 17:30N 32°46' W 117°18'3 0.1
2018-Jul-13 22:52N 32°46' W 117°15'  
Track history (hours):
 
Tides and Currents Weather Stations Pressure Air Temp Water Temp Dewpoint Dewpoint Depression Visibility Wind Speed Wind Dir Waves Ship Positions

Privateer

Owner: SEVEN SEAS WHALE WATCH, GLOUCESTER, MA. More information available from US FCC via Universal Licensing System and Coast Guard Vessel Documentation Center.

Last reported at 2018-Jul-21 22:47 UTC. Time now 2018-Jul-22 06:38 UTC.
Position N 32°46' W 117°14'.

Length 20 m.

Type: Passenger vessel. MMSI: 367453620.

Date/timePositionNaut miles runAvg speedWind from/ knotsBaromVisibWave heightAir tempDewpointWater temp
2018-Jul-21 22:47N 32°46' W 117°14'2 7.3
2018-Jul-21 22:30N 32°45' W 117°17'5 9.2
2018-Jul-21 22:00N 32°44' W 117°22'1 1.8
2018-Jul-21 21:25N 32°43' W 117°23'7 4.5
2018-Jul-21 19:46N 32°46' W 117°15'3 9.5
2018-Jul-21 19:30N 32°45' W 117°17'510.2
2018-Jul-21 19:00N 32°43' W 117°23'1 2.3
2018-Jul-21 18:30N 32°42' W 117°23'2 3.6
2018-Jul-21 17:59N 32°43' W 117°21'3 5.6
2018-Jul-21 17:30N 32°45' W 117°18'3 0.1
2018-Jul-20 19:42N 32°45' W 117°15'2 8.3
2018-Jul-20 19:30N 32°45' W 117°17'510.1
2018-Jul-20 19:00N 32°46' W 117°23'2 4.0
2018-Jul-20 18:30N 32°44' W 117°22'0 1.0
2018-Jul-20 18:00N 32°44' W 117°22'7 0.4
2018-Jul-19 23:18N 32°46' W 117°15'3 8.8
2018-Jul-19 23:00N 32°47' W 117°18'510.6
2018-Jul-19 22:30N 32°51' W 117°22'4 8.8
2018-Jul-19 22:00N 32°47' W 117°23'2 4.8
2018-Jul-19 21:30N 32°45' W 117°22'3 6.4
2018-Jul-19 20:58N 32°45' W 117°18'3 3.3
2018-Jul-19 19:55N 32°46' W 117°14'4 9.6
2018-Jul-19 19:29N 32°45' W 117°19'3 5.5
2018-Jul-19 19:00N 32°44' W 117°22'1 1.1
2018-Jul-19 18:30N 32°45' W 117°22'1 2.3
2018-Jul-19 18:00N 32°46' W 117°22'3 5.8
2018-Jul-19 17:30N 32°46' W 117°19'4 0.2
2018-Jul-18 19:58N 32°46' W 117°14'4 8.6
2018-Jul-18 19:29N 32°48' W 117°19'510.5
2018-Jul-18 18:59N 32°50' W 117°24'2 5.0
2018-Jul-18 18:30N 32°48' W 117°23'2 3.1
2018-Jul-18 18:00N 32°47' W 117°21'5 7.8
2018-Jul-18 17:19N 32°45' W 117°15'1 0.0
2018-Jul-17 19:43N 32°46' W 117°14'2 6.4
2018-Jul-17 19:26N 32°45' W 117°16'4 9.2
2018-Jul-17 19:00N 32°46' W 117°21'2 4.2
2018-Jul-17 18:30N 32°45' W 117°23'1 1.4
2018-Jul-17 18:00N 32°45' W 117°22'7 0.4
2018-Jul-16 23:21N 32°46' W 117°15'3 8.9
2018-Jul-16 23:00N 32°47' W 117°18'611.1
2018-Jul-16 22:30N 32°51' W 117°23'1 1.9
2018-Jul-16 22:00N 32°50' W 117°23'2 4.3
2018-Jul-16 21:30N 32°47' W 117°23'4 8.6
2018-Jul-16 20:59N 32°47' W 117°18'3 2.5
2018-Jul-16 19:46N 32°46' W 117°15'2 9.2
2018-Jul-16 19:30N 32°46' W 117°17'510.2
2018-Jul-16 19:00N 32°49' W 117°22'2 3.9
2018-Jul-16 18:30N 32°48' W 117°25'3 6.8
2018-Jul-16 18:00N 32°45' W 117°24'8 0.4
2018-Jul-15 23:35N 32°46' W 117°15'2 9.9
2018-Jul-15 23:23N 32°46' W 117°17'512.1
2018-Jul-15 23:00N 32°48' W 117°22'611.6
2018-Jul-15 22:30N 32°50' W 117°28'4 8.4
2018-Jul-15 22:00N 32°49' W 117°24'2 3.3
2018-Jul-15 21:29N 32°48' W 117°22'3 5.7
2018-Jul-15 21:00N 32°47' W 117°19'4 4.1
2018-Jul-15 20:01N 32°46' W 117°14'1 7.1
2018-Jul-15 19:55N 32°45' W 117°15'511.6
2018-Jul-15 19:30N 32°48' W 117°20'611.4
2018-Jul-15 19:00N 32°49' W 117°27'1 1.8
2018-Jul-15 18:30N 32°49' W 117°26'3 6.4
2018-Jul-15 18:00N 32°48' W 117°23'5 9.0
2018-Jul-15 17:28N 32°45' W 117°18'3 0.2
2018-Jul-14 23:21N 32°46' W 117°14'3 7.7
2018-Jul-14 22:54N 32°44' W 117°18'410.1
2018-Jul-14 22:30N 32°43' W 117°23'3 5.3
2018-Jul-14 22:00N 32°40' W 117°21'3 5.5
2018-Jul-14 21:30N 32°43' W 117°22'4 7.5
2018-Jul-14 21:00N 32°45' W 117°18'3 3.3
2018-Jul-14 19:58N 32°46' W 117°14'4 9.6
2018-Jul-14 19:30N 32°46' W 117°20'611.2
2018-Jul-14 19:00N 32°47' W 117°26'1 2.9
2018-Jul-14 18:30N 32°46' W 117°25'2 4.1
2018-Jul-14 18:00N 32°45' W 117°23'4 7.7
2018-Jul-14 17:30N 32°46' W 117°18'3 0.1
2018-Jul-13 22:52N 32°46' W 117°15'  

Dump ship's entire track history